Piarco FIR Weather

TAPA 220400Z 09010KT 9999 SCT019 27/22 Q1016 NOSIG

TBPB 220400Z 10016KT 9999 SCT020 27/21 Q1014 NOSIG

TDPD 220000Z 12005KT 9999 BKN016 26/23 Q1015

TFFF 220430Z AUTO 12008KT 9999 FEW029 BKN052 BKN062 27/22 Q1015 TEMPO 4000 SHRA SCT018TCU

TFFR 220430Z AUTO 10003KT 070V130 9999 FEW024/// ///TCU 25/22 Q1016 TEMPO 4000 SHRA

TGPY 220400Z 09008KT 9999 FEW017 27/24 Q1014 ADJ SHRA-E

TKPK 220200Z 06008KT 9999 FEW021 27/23 Q1016

TKPN 220000Z 09014KT 9999 FEW018TCU 28/21 Q1015

TLPC 220000Z 10009KT 9999 FEW022 27/22 Q1014 NOSIG

TLPL 220300Z 11016KT 9999 SCT022 27/22 Q1015 NOSIG

TTCP 220400Z 00000KT 9999 FEW016 27/23 Q1014 NOSIG

TTPP 220400Z 00000KT 9999 FEW016 26/23 Q1013 NOSIG

TVSV 162300Z 09007KT 050V140 9999 FEW020 26/21 Q1014